sensor_id;sensor_type;location;lat;lon;timestamp;pressure;altitude;pressure_sealevel;temperature;humidity
46009;BME280;39597;51.438;7.006;2022-07-23T00:01:26;100452.56;;;15.67;91.79
46009;BME280;39597;51.438;7.006;2022-07-23T00:03:54;100449.09;;;15.70;92.01
46009;BME280;39597;51.438;7.006;2022-07-23T00:06:21;100445.19;;;15.71;91.15
46009;BME280;39597;51.438;7.006;2022-07-23T00:08:46;100441.59;;;15.51;91.39
46009;BME280;39597;51.438;7.006;2022-07-23T00:11:12;100452.88;;;15.46;92.55
46009;BME280;39597;51.438;7.006;2022-07-23T00:13:37;100442.84;;;15.54;93.20
46009;BME280;39597;51.438;7.006;2022-07-23T00:16:03;100448.94;;;15.63;93.40
46009;BME280;39597;51.438;7.006;2022-07-23T00:18:28;100453.41;;;15.71;93.57
46009;BME280;39597;51.438;7.006;2022-07-23T00:20:55;100449.81;;;15.67;93.35
46009;BME280;39597;51.438;7.006;2022-07-23T00:23:20;100441.94;;;15.66;93.47
46009;BME280;39597;51.438;7.006;2022-07-23T00:25:45;100438.84;;;15.67;92.93
46009;BME280;39597;51.438;7.006;2022-07-23T00:28:11;100447.59;;;15.57;92.50
46009;BME280;39597;51.438;7.006;2022-07-23T00:30:37;100441.06;;;15.61;93.55
46009;BME280;39597;51.438;7.006;2022-07-23T00:33:03;100445.94;;;15.52;93.07
46009;BME280;39597;51.438;7.006;2022-07-23T00:35:31;100445.56;;;15.54;93.14
46009;BME280;39597;51.438;7.006;2022-07-23T00:37:57;100439.25;;;15.69;92.55
46009;BME280;39597;51.438;7.006;2022-07-23T00:40:23;100440.84;;;15.70;92.59
46009;BME280;39597;51.438;7.006;2022-07-23T00:42:48;100442.13;;;15.76;92.41
46009;BME280;39597;51.438;7.006;2022-07-23T00:45:14;100437.50;;;15.61;93.39
46009;BME280;39597;51.438;7.006;2022-07-23T00:47:39;100430.47;;;15.44;93.67
46009;BME280;39597;51.438;7.006;2022-07-23T00:50:05;100434.72;;;15.42;94.25
46009;BME280;39597;51.438;7.006;2022-07-23T00:52:32;100429.25;;;15.42;94.80
46009;BME280;39597;51.438;7.006;2022-07-23T00:54:58;100428.50;;;15.45;94.16
46009;BME280;39597;51.438;7.006;2022-07-23T00:57:24;100426.50;;;15.42;94.28
46009;BME280;39597;51.438;7.006;2022-07-23T00:59:49;100421.81;;;15.42;94.73
46009;BME280;39597;51.438;7.006;2022-07-23T01:02:15;100428.09;;;15.43;94.26
46009;BME280;39597;51.438;7.006;2022-07-23T01:04:40;100428.81;;;15.40;94.51
46009;BME280;39597;51.438;7.006;2022-07-23T01:07:05;100431.78;;;15.50;94.72
46009;BME280;39597;51.438;7.006;2022-07-23T01:09:31;100428.09;;;15.43;94.46
46009;BME280;39597;51.438;7.006;2022-07-23T01:11:58;100433.75;;;15.50;94.47
46009;BME280;39597;51.438;7.006;2022-07-23T01:14:24;100442.69;;;15.47;94.66
46009;BME280;39597;51.438;7.006;2022-07-23T01:16:49;100438.44;;;15.49;94.68
46009;BME280;39597;51.438;7.006;2022-07-23T01:22:20;100438.22;;;15.58;94.14
46009;BME280;39597;51.438;7.006;2022-07-23T01:24:46;100433.38;;;15.51;94.41
46009;BME280;39597;51.438;7.006;2022-07-23T01:27:12;100431.53;;;15.40;94.46
46009;BME280;39597;51.438;7.006;2022-07-23T01:29:51;100433.28;;;15.28;95.43
46009;BME280;39597;51.438;7.006;2022-07-23T01:32:20;100435.75;;;15.33;95.96
46009;BME280;39597;51.438;7.006;2022-07-23T01:34:56;100435.81;;;15.56;95.87
46009;BME280;39597;51.438;7.006;2022-07-23T01:37:22;100438.31;;;15.61;94.82
46009;BME280;39597;51.438;7.006;2022-07-23T01:39:47;100440.88;;;15.54;94.15
46009;BME280;39597;51.438;7.006;2022-07-23T01:42:13;100434.97;;;15.52;93.49
46009;BME280;39597;51.438;7.006;2022-07-23T01:44:41;100432.72;;;15.58;94.86
46009;BME280;39597;51.438;7.006;2022-07-23T01:47:06;100434.75;;;15.61;94.55
46009;BME280;39597;51.438;7.006;2022-07-23T01:49:32;100422.31;;;15.48;94.74
46009;BME280;39597;51.438;7.006;2022-07-23T01:51:57;100427.88;;;15.51;95.10
46009;BME280;39597;51.438;7.006;2022-07-23T01:54:37;100427.22;;;15.58;94.75
46009;BME280;39597;51.438;7.006;2022-07-23T01:57:06;100418.28;;;15.61;93.47
46009;BME280;39597;51.438;7.006;2022-07-23T01:59:33;100423.00;;;15.60;93.86
46009;BME280;39597;51.438;7.006;2022-07-23T02:01:59;100420.16;;;15.57;94.65
46009;BME280;39597;51.438;7.006;2022-07-23T02:04:25;100428.38;;;15.57;93.28
46009;BME280;39597;51.438;7.006;2022-07-23T02:06:53;100430.25;;;15.53;93.02
46009;BME280;39597;51.438;7.006;2022-07-23T02:09:19;100425.50;;;15.30;94.56
46009;BME280;39597;51.438;7.006;2022-07-23T02:11:44;100424.16;;;15.24;95.03
46009;BME280;39597;51.438;7.006;2022-07-23T02:14:09;100420.56;;;15.20;95.08
46009;BME280;39597;51.438;7.006;2022-07-23T02:16:35;100421.25;;;15.52;95.15
46009;BME280;39597;51.438;7.006;2022-07-23T02:19:00;100421.59;;;15.51;95.27
46009;BME280;39597;51.438;7.006;2022-07-23T02:21:26;100416.25;;;15.39;94.81
46009;BME280;39597;51.438;7.006;2022-07-23T02:23:51;100416.09;;;15.31;95.34
46009;BME280;39597;51.438;7.006;2022-07-23T02:26:16;100417.44;;;15.22;95.63
46009;BME280;39597;51.438;7.006;2022-07-23T02:28:42;100423.53;;;15.31;96.03
46009;BME280;39597;51.438;7.006;2022-07-23T02:31:07;100420.59;;;15.59;94.25
46009;BME280;39597;51.438;7.006;2022-07-23T02:33:32;100419.00;;;15.58;94.42
46009;BME280;39597;51.438;7.006;2022-07-23T02:35:59;100416.00;;;15.63;94.44
46009;BME280;39597;51.438;7.006;2022-07-23T02:38:26;100416.50;;;15.69;94.11
46009;BME280;39597;51.438;7.006;2022-07-23T02:40:51;100421.53;;;15.47;93.65
46009;BME280;39597;51.438;7.006;2022-07-23T02:43:17;100424.47;;;15.58;94.13
46009;BME280;39597;51.438;7.006;2022-07-23T02:45:43;100428.38;;;15.57;94.19
46009;BME280;39597;51.438;7.006;2022-07-23T02:48:08;100419.47;;;15.44;94.41
46009;BME280;39597;51.438;7.006;2022-07-23T02:50:34;100418.84;;;15.51;94.43
46009;BME280;39597;51.438;7.006;2022-07-23T02:52:59;100417.41;;;15.57;93.99
46009;BME280;39597;51.438;7.006;2022-07-23T02:55:24;100418.94;;;15.54;94.11
46009;BME280;39597;51.438;7.006;2022-07-23T02:57:50;100422.03;;;15.53;94.13
46009;BME280;39597;51.438;7.006;2022-07-23T03:00:15;100423.63;;;15.54;93.95
46009;BME280;39597;51.438;7.006;2022-07-23T03:02:40;100425.22;;;15.55;93.57
46009;BME280;39597;51.438;7.006;2022-07-23T03:05:06;100418.84;;;15.51;94.09
46009;BME280;39597;51.438;7.006;2022-07-23T03:07:33;100422.09;;;15.56;94.31
46009;BME280;39597;51.438;7.006;2022-07-23T03:09:58;100418.06;;;15.50;93.49
46009;BME280;39597;51.438;7.006;2022-07-23T03:12:24;100419.66;;;15.51;93.98
46009;BME280;39597;51.438;7.006;2022-07-23T03:14:49;100422.59;;;15.43;93.96
46009;BME280;39597;51.438;7.006;2022-07-23T03:17:15;100412.50;;;15.47;94.28
46009;BME280;39597;51.438;7.006;2022-07-23T03:19:40;100401.38;;;15.40;94.14
46009;BME280;39597;51.438;7.006;2022-07-23T03:22:06;100411.84;;;15.34;94.08
46009;BME280;39597;51.438;7.006;2022-07-23T03:24:32;100405.13;;;15.31;94.34
46009;BME280;39597;51.438;7.006;2022-07-23T03:27:17;100404.69;;;15.29;94.58
46009;BME280;39597;51.438;7.006;2022-07-23T03:29:42;100404.22;;;15.27;94.67
46009;BME280;39597;51.438;7.006;2022-07-23T03:32:08;100401.50;;;15.27;94.44
46009;BME280;39597;51.438;7.006;2022-07-23T03:34:33;100412.41;;;15.24;94.15
46009;BME280;39597;51.438;7.006;2022-07-23T03:36:58;100415.06;;;15.20;94.59
46009;BME280;39597;51.438;7.006;2022-07-23T03:39:24;100414.63;;;15.18;94.71
46009;BME280;39597;51.438;7.006;2022-07-23T03:41:49;100406.22;;;15.11;94.15
46009;BME280;39597;51.438;7.006;2022-07-23T03:44:14;100411.28;;;15.09;93.29
46009;BME280;39597;51.438;7.006;2022-07-23T03:46:39;100415.59;;;15.10;93.90
46009;BME280;39597;51.438;7.006;2022-07-23T03:49:05;100413.59;;;15.07;93.68
46009;BME280;39597;51.438;7.006;2022-07-23T03:51:30;100418.03;;;15.12;93.66
46009;BME280;39597;51.438;7.006;2022-07-23T03:53:55;100414.91;;;15.13;93.60
46009;BME280;39597;51.438;7.006;2022-07-23T03:56:21;100419.94;;;15.11;93.99
46009;BME280;39597;51.438;7.006;2022-07-23T03:58:47;100419.06;;;15.07;93.99
46009;BME280;39597;51.438;7.006;2022-07-23T04:01:12;100423.03;;;15.10;93.71
46009;BME280;39597;51.438;7.006;2022-07-23T04:03:37;100424.56;;;15.07;93.11
46009;BME280;39597;51.438;7.006;2022-07-23T04:06:02;100427.59;;;15.02;93.34
46009;BME280;39597;51.438;7.006;2022-07-23T04:08:28;100432.34;;;15.05;92.96
46009;BME280;39597;51.438;7.006;2022-07-23T04:10:54;100434.28;;;15.04;93.31
46009;BME280;39597;51.438;7.006;2022-07-23T04:13:20;100434.72;;;15.07;93.67
46009;BME280;39597;51.438;7.006;2022-07-23T04:15:45;100430.03;;;15.07;93.26
46009;BME280;39597;51.438;7.006;2022-07-23T04:18:11;100432.00;;;15.07;93.55
46009;BME280;39597;51.438;7.006;2022-07-23T04:20:36;100432.00;;;15.07;93.25
46009;BME280;39597;51.438;7.006;2022-07-23T04:23:01;100432.34;;;15.05;92.93
46009;BME280;39597;51.438;7.006;2022-07-23T04:25:27;100429.53;;;15.01;92.97
46009;BME280;39597;51.438;7.006;2022-07-23T04:27:52;100440.25;;;14.91;93.23
46009;BME280;39597;51.438;7.006;2022-07-23T04:30:17;100435.38;;;15.00;93.50
46009;BME280;39597;51.438;7.006;2022-07-23T04:32:42;100437.47;;;15.07;93.32
46009;BME280;39597;51.438;7.006;2022-07-23T04:35:08;100444.19;;;15.09;93.03
46009;BME280;39597;51.438;7.006;2022-07-23T04:37:35;100439.72;;;15.01;92.53
46009;BME280;39597;51.438;7.006;2022-07-23T04:40:00;100442.81;;;14.84;93.54
46009;BME280;39597;51.438;7.006;2022-07-23T04:42:26;100455.47;;;14.72;94.14
46009;BME280;39597;51.438;7.006;2022-07-23T04:44:51;100451.13;;;14.71;94.59
46009;BME280;39597;51.438;7.006;2022-07-23T04:47:16;100464.03;;;14.71;94.96
46009;BME280;39597;51.438;7.006;2022-07-23T04:49:42;100463.97;;;14.67;95.48
46009;BME280;39597;51.438;7.006;2022-07-23T04:52:07;100456.09;;;14.66;95.50
46009;BME280;39597;51.438;7.006;2022-07-23T04:54:34;100457.94;;;14.78;95.37
46009;BME280;39597;51.438;7.006;2022-07-23T04:57:00;100446.97;;;14.78;95.25
46009;BME280;39597;51.438;7.006;2022-07-23T04:59:25;100464.13;;;14.74;94.87
46009;BME280;39597;51.438;7.006;2022-07-23T05:01:52;100457.06;;;14.73;95.58
46009;BME280;39597;51.438;7.006;2022-07-23T05:04:17;100469.38;;;14.80;95.58
46009;BME280;39597;51.438;7.006;2022-07-23T05:06:42;100458.91;;;15.01;94.65
46009;BME280;39597;51.438;7.006;2022-07-23T05:09:08;100472.25;;;15.02;94.85
46009;BME280;39597;51.438;7.006;2022-07-23T05:11:34;100466.53;;;15.27;92.10
46009;BME280;39597;51.438;7.006;2022-07-23T05:14:00;100474.69;;;15.23;92.98
46009;BME280;39597;51.438;7.006;2022-07-23T05:16:25;100468.19;;;15.12;93.64
46009;BME280;39597;51.438;7.006;2022-07-23T05:18:50;100475.56;;;15.27;93.13
46009;BME280;39597;51.438;7.006;2022-07-23T05:21:15;100471.75;;;15.32;93.40
46009;BME280;39597;51.438;7.006;2022-07-23T05:23:41;100473.03;;;15.54;91.89
46009;BME280;39597;51.438;7.006;2022-07-23T05:26:06;100473.56;;;15.44;92.44
46009;BME280;39597;51.438;7.006;2022-07-23T05:28:31;100472.16;;;15.50;91.82
46009;BME280;39597;51.438;7.006;2022-07-23T05:30:56;100481.53;;;15.49;92.38
46009;BME280;39597;51.438;7.006;2022-07-23T05:33:22;100485.13;;;15.69;91.74
46009;BME280;39597;51.438;7.006;2022-07-23T05:35:47;100490.25;;;15.70;91.29
46009;BME280;39597;51.438;7.006;2022-07-23T05:38:12;100491.81;;;15.52;91.94
46009;BME280;39597;51.438;7.006;2022-07-23T05:40:37;100487.94;;;15.37;92.42
46009;BME280;39597;51.438;7.006;2022-07-23T05:43:03;100493.94;;;15.43;92.47
46009;BME280;39597;51.438;7.006;2022-07-23T05:45:28;100492.41;;;15.61;92.17
46009;BME280;39597;51.438;7.006;2022-07-23T05:47:53;100492.44;;;15.80;91.33
46009;BME280;39597;51.438;7.006;2022-07-23T05:50:19;100492.22;;;15.89;90.84
46009;BME280;39597;51.438;7.006;2022-07-23T05:52:44;100495.75;;;16.09;90.16
46009;BME280;39597;51.438;7.006;2022-07-23T05:55:09;100497.69;;;16.08;90.44
46009;BME280;39597;51.438;7.006;2022-07-23T05:57:36;100502.28;;;16.01;90.40
46009;BME280;39597;51.438;7.006;2022-07-23T06:00:02;100503.88;;;16.02;91.13
46009;BME280;39597;51.438;7.006;2022-07-23T06:02:29;100504.88;;;16.13;90.01
46009;BME280;39597;51.438;7.006;2022-07-23T06:04:55;100507.75;;;16.20;89.94
46009;BME280;39597;51.438;7.006;2022-07-23T06:07:20;100504.88;;;16.13;90.13
46009;BME280;39597;51.438;7.006;2022-07-23T06:09:45;100503.84;;;16.21;89.38
46009;BME280;39597;51.438;7.006;2022-07-23T06:12:12;100506.66;;;16.24;89.46
46009;BME280;39597;51.438;7.006;2022-07-23T06:14:37;100506.00;;;16.31;89.36
46009;BME280;39597;51.438;7.006;2022-07-23T06:17:02;100497.53;;;16.40;89.08
46009;BME280;39597;51.438;7.006;2022-07-23T06:19:28;100504.50;;;16.57;86.74
46009;BME280;39597;51.438;7.006;2022-07-23T06:21:53;100510.56;;;16.66;87.21
46009;BME280;39597;51.438;7.006;2022-07-23T06:24:18;100510.47;;;16.62;87.64
46009;BME280;39597;51.438;7.006;2022-07-23T06:26:43;100518.72;;;16.81;86.90
46009;BME280;39597;51.438;7.006;2022-07-23T06:29:10;100516.94;;;16.93;85.80
46009;BME280;39597;51.438;7.006;2022-07-23T06:31:35;100513.94;;;17.01;84.84
46009;BME280;39597;51.438;7.006;2022-07-23T06:34:00;100514.31;;;17.00;85.42
46009;BME280;39597;51.438;7.006;2022-07-23T06:36:27;100515.00;;;17.46;83.36
46009;BME280;39597;51.438;7.006;2022-07-23T06:38:52;100513.47;;;18.05;80.97
46009;BME280;39597;51.438;7.006;2022-07-23T06:41:18;100510.75;;;18.46;78.93
46009;BME280;39597;51.438;7.006;2022-07-23T06:43:43;100508.16;;;19.01;75.87
46009;BME280;39597;51.438;7.006;2022-07-23T06:46:08;100513.84;;;19.22;74.66
46009;BME280;39597;51.438;7.006;2022-07-23T06:48:35;100521.09;;;18.93;76.74
46009;BME280;39597;51.438;7.006;2022-07-23T06:51:01;100522.50;;;19.20;74.67
46009;BME280;39597;51.438;7.006;2022-07-23T06:53:27;100522.72;;;19.52;73.62
46009;BME280;39597;51.438;7.006;2022-07-23T06:55:52;100524.81;;;19.66;73.49
46009;BME280;39597;51.438;7.006;2022-07-23T06:58:17;100528.38;;;19.67;72.91
46009;BME280;39597;51.438;7.006;2022-07-23T07:00:44;100525.94;;;19.62;72.89
46009;BME280;39597;51.438;7.006;2022-07-23T07:03:09;100531.16;;;19.74;72.89
46009;BME280;39597;51.438;7.006;2022-07-23T07:05:35;100533.13;;;19.73;71.27
46009;BME280;39597;51.438;7.006;2022-07-23T07:08:00;100535.34;;;19.50;72.29
46009;BME280;39597;51.438;7.006;2022-07-23T07:10:26;100532.34;;;19.73;72.88
46009;BME280;39597;51.438;7.006;2022-07-23T07:12:51;100531.81;;;20.36;69.95
46009;BME280;39597;51.438;7.006;2022-07-23T07:15:16;100527.53;;;20.53;69.24
46009;BME280;39597;51.438;7.006;2022-07-23T07:17:42;100534.47;;;20.11;71.36
46009;BME280;39597;51.438;7.006;2022-07-23T07:20:08;100530.81;;;19.82;72.20
46009;BME280;39597;51.438;7.006;2022-07-23T07:22:33;100524.94;;;19.98;71.52
46009;BME280;39597;51.438;7.006;2022-07-23T07:24:59;100531.56;;;19.76;72.30
46009;BME280;39597;51.438;7.006;2022-07-23T07:27:24;100539.44;;;19.74;70.94
46009;BME280;39597;51.438;7.006;2022-07-23T07:29:49;100527.25;;;19.20;72.09
46009;BME280;39597;51.438;7.006;2022-07-23T07:32:15;100536.16;;;19.03;72.64
46009;BME280;39597;51.438;7.006;2022-07-23T07:34:40;100541.38;;;18.67;73.18
46009;BME280;39597;51.438;7.006;2022-07-23T07:37:05;100537.44;;;18.34;73.20
46009;BME280;39597;51.438;7.006;2022-07-23T07:39:31;100542.34;;;18.52;72.00
46009;BME280;39597;51.438;7.006;2022-07-23T07:41:58;100550.91;;;18.77;72.02
46009;BME280;39597;51.438;7.006;2022-07-23T07:44:25;100541.53;;;18.48;71.55
46009;BME280;39597;51.438;7.006;2022-07-23T07:46:50;100553.69;;;18.43;72.92
46009;BME280;39597;51.438;7.006;2022-07-23T07:49:15;100550.50;;;18.41;71.70
46009;BME280;39597;51.438;7.006;2022-07-23T07:51:44;100551.53;;;18.63;71.82
46009;BME280;39597;51.438;7.006;2022-07-23T07:54:09;100547.38;;;18.80;71.17
46009;BME280;39597;51.438;7.006;2022-07-23T07:56:35;100557.06;;;18.63;71.92
46009;BME280;39597;51.438;7.006;2022-07-23T07:59:00;100554.59;;;18.54;71.65
46009;BME280;39597;51.438;7.006;2022-07-23T08:01:26;100556.41;;;18.77;72.04
46009;BME280;39597;51.438;7.006;2022-07-23T08:03:51;100563.22;;;18.86;70.29
46009;BME280;39597;51.438;7.006;2022-07-23T08:06:19;100567.63;;;18.94;70.08
46009;BME280;39597;51.438;7.006;2022-07-23T08:08:44;100574.16;;;18.76;70.03
46009;BME280;39597;51.438;7.006;2022-07-23T08:11:10;100573.53;;;18.93;70.36
46009;BME280;39597;51.438;7.006;2022-07-23T08:13:35;100575.56;;;19.00;70.36
46009;BME280;39597;51.438;7.006;2022-07-23T08:16:00;100573.03;;;19.28;69.05
46009;BME280;39597;51.438;7.006;2022-07-23T08:18:26;100574.63;;;19.29;68.14
46009;BME280;39597;51.438;7.006;2022-07-23T08:20:51;100575.03;;;19.31;66.83
46009;BME280;39597;51.438;7.006;2022-07-23T08:23:17;100578.63;;;19.35;67.15
46009;BME280;39597;51.438;7.006;2022-07-23T08:25:45;100576.78;;;19.53;66.44
46009;BME280;39597;51.438;7.006;2022-07-23T08:28:12;100581.00;;;19.37;66.84
46009;BME280;39597;51.438;7.006;2022-07-23T08:30:39;100585.84;;;19.50;65.61
46009;BME280;39597;51.438;7.006;2022-07-23T08:33:08;100580.31;;;19.50;64.86
46009;BME280;39597;51.438;7.006;2022-07-23T08:35:47;100582.22;;;19.43;64.61
46009;BME280;39597;51.438;7.006;2022-07-23T08:38:15;100578.63;;;19.35;65.87
46009;BME280;39597;51.438;7.006;2022-07-23T08:40:44;100577.75;;;19.28;65.20
46009;BME280;39597;51.438;7.006;2022-07-23T08:43:12;100587.25;;;19.30;65.18
46009;BME280;39597;51.438;7.006;2022-07-23T08:45:41;100585.78;;;19.43;64.69
46009;BME280;39597;51.438;7.006;2022-07-23T08:48:11;100582.75;;;19.56;63.63
46009;BME280;39597;51.438;7.006;2022-07-23T08:50:37;100589.19;;;19.74;63.13
46009;BME280;39597;51.438;7.006;2022-07-23T08:53:05;100586.88;;;19.83;62.27
46009;BME280;39597;51.438;7.006;2022-07-23T08:55:31;100593.72;;;20.10;62.66
46009;BME280;39597;51.438;7.006;2022-07-23T08:57:56;100595.31;;;20.11;61.58
46009;BME280;39597;51.438;7.006;2022-07-23T09:00:22;100587.78;;;20.12;62.37
46009;BME280;39597;51.438;7.006;2022-07-23T09:02:48;100589.28;;;19.95;62.49
46009;BME280;39597;51.438;7.006;2022-07-23T09:05:15;100588.66;;;20.23;62.08
46009;BME280;39597;51.438;7.006;2022-07-23T09:08:03;100590.09;;;19.96;61.42
46009;BME280;39597;51.438;7.006;2022-07-23T09:10:29;100592.66;;;19.64;60.71
46009;BME280;39597;51.438;7.006;2022-07-23T09:12:54;100597.47;;;19.74;61.83
46009;BME280;39597;51.438;7.006;2022-07-23T09:15:20;100588.50;;;19.91;61.12
46009;BME280;39597;51.438;7.006;2022-07-23T09:17:45;100600.03;;;20.14;59.99
46009;BME280;39597;51.438;7.006;2022-07-23T09:20:13;100595.81;;;20.35;59.48
46009;BME280;39597;51.438;7.006;2022-07-23T09:22:47;100592.78;;;20.72;57.41
46009;BME280;39597;51.438;7.006;2022-07-23T09:27:58;100594.38;;;20.80;57.62
46009;BME280;39597;51.438;7.006;2022-07-23T09:30:26;100597.16;;;20.91;56.33
46009;BME280;39597;51.438;7.006;2022-07-23T09:33:09;100596.34;;;20.72;57.02
46009;BME280;39597;51.438;7.006;2022-07-23T09:35:46;100597.53;;;20.68;57.09
46009;BME280;39597;51.438;7.006;2022-07-23T09:38:12;100590.44;;;20.99;56.37
46009;BME280;39597;51.438;7.006;2022-07-23T09:40:38;100592.44;;;20.95;55.80
46009;BME280;39597;51.438;7.006;2022-07-23T09:43:03;100594.44;;;21.01;55.70
46009;BME280;39597;51.438;7.006;2022-07-23T09:45:29;100586.91;;;21.16;55.25
46009;BME280;39597;51.438;7.006;2022-07-23T09:48:27;100591.28;;;21.17;56.32
46009;BME280;39597;51.438;7.006;2022-07-23T09:51:02;100594.06;;;21.35;55.20
46009;BME280;39597;51.438;7.006;2022-07-23T09:53:29;100590.06;;;21.08;55.22
46009;BME280;39597;51.438;7.006;2022-07-23T09:55:58;100590.47;;;21.06;54.92
46009;BME280;39597;51.438;7.006;2022-07-23T09:58:26;100591.25;;;21.10;54.61
46009;BME280;39597;51.438;7.006;2022-07-23T10:00:55;100592.06;;;21.07;55.49
46009;BME280;39597;51.438;7.006;2022-07-23T10:03:23;100594.47;;;21.41;55.64
46009;BME280;39597;51.438;7.006;2022-07-23T10:05:49;100595.63;;;21.47;55.22
46009;BME280;39597;51.438;7.006;2022-07-23T10:08:17;100597.63;;;21.28;55.61
46009;BME280;39597;51.438;7.006;2022-07-23T10:10:47;100596.00;;;21.10;55.65
46009;BME280;39597;51.438;7.006;2022-07-23T10:13:14;100594.84;;;21.39;54.50
46009;BME280;39597;51.438;7.006;2022-07-23T10:15:58;100597.59;;;21.03;55.07
46009;BME280;39597;51.438;7.006;2022-07-23T10:18:25;100591.25;;;20.96;55.63
46009;BME280;39597;51.438;7.006;2022-07-23T10:20:50;100592.88;;;21.25;55.23
46009;BME280;39597;51.438;7.006;2022-07-23T10:23:24;100590.50;;;21.42;54.57
46009;BME280;39597;51.438;7.006;2022-07-23T10:26:03;100590.09;;;21.47;54.28
46009;BME280;39597;51.438;7.006;2022-07-23T10:29:20;100588.91;;;21.48;54.31
46009;BME280;39597;51.438;7.006;2022-07-23T10:31:38;100592.03;;;21.64;53.58
46009;BME280;39597;51.438;7.006;2022-07-23T10:39:24;100587.72;;;21.24;54.37
46009;BME280;39597;51.438;7.006;2022-07-23T10:41:51;100588.50;;;21.63;53.66
46009;BME280;39597;51.438;7.006;2022-07-23T10:44:19;100587.31;;;21.68;54.20
46009;BME280;39597;51.438;7.006;2022-07-23T10:46:58;100584.56;;;21.54;53.30
46009;BME280;39597;51.438;7.006;2022-07-23T10:49:42;100580.19;;;21.67;54.48
46009;BME280;39597;51.438;7.006;2022-07-23T10:54:47;100579.66;;;22.22;52.31
46009;BME280;39597;51.438;7.006;2022-07-23T10:57:14;100579.22;;;22.34;52.28
46009;BME280;39597;51.438;7.006;2022-07-23T11:02:24;100578.50;;;22.12;51.28
46009;BME280;39597;51.438;7.006;2022-07-23T11:04:52;100579.44;;;22.61;50.26
46009;BME280;39597;51.438;7.006;2022-07-23T11:07:18;100584.25;;;22.57;51.30
46009;BME280;39597;51.438;7.006;2022-07-23T11:09:44;100571.66;;;23.04;48.18
46009;BME280;39597;51.438;7.006;2022-07-23T11:17:38;100574.34;;;22.56;49.33
46009;BME280;39597;51.438;7.006;2022-07-23T11:25:10;100575.81;;;22.75;48.51
46009;BME280;39597;51.438;7.006;2022-07-23T11:27:44;100575.59;;;22.41;49.25
46009;BME280;39597;51.438;7.006;2022-07-23T11:35:33;100570.25;;;22.75;49.02
46009;BME280;39597;51.438;7.006;2022-07-23T11:38:18;100576.41;;;23.07;48.40
46009;BME280;39597;51.438;7.006;2022-07-23T11:40:46;100574.19;;;23.36;47.12
46009;BME280;39597;51.438;7.006;2022-07-23T11:43:13;100571.19;;;23.13;46.67
46009;BME280;39597;51.438;7.006;2022-07-23T11:45:44;100572.19;;;22.89;47.55
46009;BME280;39597;51.438;7.006;2022-07-23T11:48:16;100568.91;;;23.46;47.63
46009;BME280;39597;51.438;7.006;2022-07-23T11:50:42;100571.19;;;23.61;46.65
46009;BME280;39597;51.438;7.006;2022-07-23T11:53:08;100570.47;;;23.91;45.63
46009;BME280;39597;51.438;7.006;2022-07-23T11:55:33;100578.38;;;23.55;46.14
46009;BME280;39597;51.438;7.006;2022-07-23T11:57:59;100575.19;;;23.57;45.73
46009;BME280;39597;51.438;7.006;2022-07-23T12:00:26;100579.31;;;23.38;46.21
46009;BME280;39597;51.438;7.006;2022-07-23T12:02:55;100580.75;;;23.57;46.46
46009;BME280;39597;51.438;7.006;2022-07-23T12:05:23;100579.16;;;23.59;46.51
46009;BME280;39597;51.438;7.006;2022-07-23T12:07:51;100562.69;;;23.76;46.15
46009;BME280;39597;51.438;7.006;2022-07-23T12:10:19;100570.16;;;24.16;45.17
46009;BME280;39597;51.438;7.006;2022-07-23T12:12:48;100562.81;;;23.99;44.97
46009;BME280;39597;51.438;7.006;2022-07-23T12:15:20;100567.38;;;23.41;46.22
46009;BME280;39597;51.438;7.006;2022-07-23T12:17:48;100559.09;;;23.79;46.89
46009;BME280;39597;51.438;7.006;2022-07-23T12:20:16;100561.41;;;24.18;44.85
46009;BME280;39597;51.438;7.006;2022-07-23T12:22:45;100555.81;;;24.18;44.92
46009;BME280;39597;51.438;7.006;2022-07-23T12:25:13;100563.75;;;23.89;45.91
46009;BME280;39597;51.438;7.006;2022-07-23T12:27:40;100572.50;;;23.87;46.53
46009;BME280;39597;51.438;7.006;2022-07-23T12:32:46;100567.13;;;23.69;45.95
46009;BME280;39597;51.438;7.006;2022-07-23T12:35:12;100572.50;;;23.87;45.79
46009;BME280;39597;51.438;7.006;2022-07-23T12:37:40;100560.50;;;24.58;43.06
46009;BME280;39597;51.438;7.006;2022-07-23T12:40:30;100569.91;;;25.22;43.21
46009;BME280;39597;51.438;7.006;2022-07-23T12:43:02;100558.78;;;25.18;42.06
46009;BME280;39597;51.438;7.006;2022-07-23T12:45:42;100558.19;;;25.54;41.83
46009;BME280;39597;51.438;7.006;2022-07-23T12:48:08;100562.78;;;25.41;41.80
46009;BME280;39597;51.438;7.006;2022-07-23T12:50:48;100567.00;;;26.32;40.08
46009;BME280;39597;51.438;7.006;2022-07-23T12:53:20;100567.88;;;26.29;38.70
46009;BME280;39597;51.438;7.006;2022-07-23T12:55:47;100570.63;;;26.13;38.79
46009;BME280;39597;51.438;7.006;2022-07-23T12:58:18;100574.63;;;25.72;39.25
46009;BME280;39597;51.438;7.006;2022-07-23T13:01:03;100571.69;;;25.79;39.81
46009;BME280;39597;51.438;7.006;2022-07-23T13:03:35;100583.84;;;26.48;38.65
46009;BME280;39597;51.438;7.006;2022-07-23T13:06:03;100573.47;;;27.01;36.92
46009;BME280;39597;51.438;7.006;2022-07-23T13:08:30;100569.59;;;26.95;36.23
46009;BME280;39597;51.438;7.006;2022-07-23T13:10:56;100574.59;;;27.04;36.62
46009;BME280;39597;51.438;7.006;2022-07-23T13:13:24;100579.94;;;27.31;36.39
46009;BME280;39597;51.438;7.006;2022-07-23T13:15:50;100578.16;;;27.69;37.39
46009;BME280;39597;51.438;7.006;2022-07-23T13:18:16;100570.06;;;27.26;36.06
46009;BME280;39597;51.438;7.006;2022-07-23T13:20:43;100575.38;;;27.37;36.60
46009;BME280;39597;51.438;7.006;2022-07-23T13:23:08;100578.09;;;27.40;35.81
46009;BME280;39597;51.438;7.006;2022-07-23T13:25:33;100585.00;;;27.19;36.68